Terminal Aerodrome Forecast
Issued by NWS Cleveland, OH

Home | Current Version | Previous Version | Graphics & Text | Print | Product List | Glossary Off
Versions: 1 2 3 4 5 6 7 8 9 10 11 12 13 14 15 16 17 18 19

000
FTUS41 KCLE 231727
TAFMFD
TAF
KMFD 231727Z 2318/2418 25006KT P6SM SCT020 BKN070
      TEMPO 2318/2320 BKN020
     FM232000 26006KT P6SM VCTS SCT030CB BKN050
      TEMPO 2320/2324 3SM -TSRA BKN020CB
     FM240200 26005KT 6SM BR FEW020 BKN100
     FM241100 28006KT P6SM SCT008 BKN025
     FM241600 30008KT P6SM SCT035=

USA.gov is the U.S. government's official web portal to all federal, state and local government web resources and services.